sensor_id;sensor_type;location;lat;lon;timestamp;pressure;altitude;pressure_sealevel;temperature;humidity
13068;BME280;6600;51.362;6.686;2023-06-26T00:01:14;100808.09;;;29.26;58.02
13068;BME280;6600;51.362;6.686;2023-06-26T00:03:40;100821.25;;;29.20;58.04
13068;BME280;6600;51.362;6.686;2023-06-26T00:06:05;100802.59;;;29.17;58.48
13068;BME280;6600;51.362;6.686;2023-06-26T00:08:30;100811.28;;;29.07;58.66
13068;BME280;6600;51.362;6.686;2023-06-26T00:10:56;100810.28;;;29.12;58.62
13068;BME280;6600;51.362;6.686;2023-06-26T00:13:23;100816.78;;;29.07;58.41
13068;BME280;6600;51.362;6.686;2023-06-26T00:15:48;100806.94;;;28.85;58.73
13068;BME280;6600;51.362;6.686;2023-06-26T00:18:14;100817.34;;;29.00;58.78
13068;BME280;6600;51.362;6.686;2023-06-26T00:20:39;100816.66;;;28.83;59.08
13068;BME280;6600;51.362;6.686;2023-06-26T00:23:04;100811.81;;;28.80;59.50
13068;BME280;6600;51.362;6.686;2023-06-26T00:25:33;100816.91;;;28.69;59.79
13068;BME280;6600;51.362;6.686;2023-06-26T00:27:58;100818.69;;;28.74;59.42
13068;BME280;6600;51.362;6.686;2023-06-26T00:30:23;100807.66;;;28.74;59.60
13068;BME280;6600;51.362;6.686;2023-06-26T00:32:49;100811.06;;;28.71;59.69
13068;BME280;6600;51.362;6.686;2023-06-26T00:35:15;100809.50;;;28.61;59.51
13068;BME280;6600;51.362;6.686;2023-06-26T00:37:40;100801.53;;;28.59;59.66
13068;BME280;6600;51.362;6.686;2023-06-26T00:40:06;100805.25;;;28.64;59.63
13068;BME280;6600;51.362;6.686;2023-06-26T00:42:31;100803.13;;;28.69;59.73
13068;BME280;6600;51.362;6.686;2023-06-26T00:44:57;100802.94;;;28.74;58.93
13068;BME280;6600;51.362;6.686;2023-06-26T00:47:22;100806.03;;;28.73;59.17
13068;BME280;6600;51.362;6.686;2023-06-26T00:49:48;100814.66;;;28.63;59.71
13068;BME280;6600;51.362;6.686;2023-06-26T00:52:14;100808.47;;;28.66;59.50
13068;BME280;6600;51.362;6.686;2023-06-26T00:54:39;100809.63;;;28.65;59.61
13068;BME280;6600;51.362;6.686;2023-06-26T00:57:05;100807.81;;;28.69;59.82
13068;BME280;6600;51.362;6.686;2023-06-26T00:59:30;100804.13;;;28.65;60.30
13068;BME280;6600;51.362;6.686;2023-06-26T01:01:55;100799.72;;;28.64;59.92
13068;BME280;6600;51.362;6.686;2023-06-26T01:04:21;100801.53;;;28.59;59.82
13068;BME280;6600;51.362;6.686;2023-06-26T01:06:46;100802.34;;;28.60;60.06
13068;BME280;6600;51.362;6.686;2023-06-26T01:09:21;100792.81;;;28.57;60.08
13068;BME280;6600;51.362;6.686;2023-06-26T01:11:47;100794.59;;;28.53;60.48
13068;BME280;6600;51.362;6.686;2023-06-26T01:14:12;100793.47;;;28.54;59.78
13068;BME280;6600;51.362;6.686;2023-06-26T01:16:39;100790.50;;;28.59;60.18
13068;BME280;6600;51.362;6.686;2023-06-26T01:19:16;100789.84;;;28.63;60.12
13068;BME280;6600;51.362;6.686;2023-06-26T01:21:50;100789.47;;;28.43;60.72
13068;BME280;6600;51.362;6.686;2023-06-26T01:24:17;100791.44;;;28.43;60.61
13068;BME280;6600;51.362;6.686;2023-06-26T01:26:49;100787.41;;;28.40;60.58
13068;BME280;6600;51.362;6.686;2023-06-26T01:29:16;100779.59;;;28.42;60.60
13068;BME280;6600;51.362;6.686;2023-06-26T01:31:44;100780.78;;;28.33;60.99
13068;BME280;6600;51.362;6.686;2023-06-26T01:34:14;100771.88;;;28.27;60.79
13068;BME280;6600;51.362;6.686;2023-06-26T01:36:40;100779.53;;;28.22;61.37
13068;BME280;6600;51.362;6.686;2023-06-26T01:39:05;100774.16;;;28.25;60.60
13068;BME280;6600;51.362;6.686;2023-06-26T01:41:31;100769.34;;;28.22;60.70
13068;BME280;6600;51.362;6.686;2023-06-26T01:44:09;100768.13;;;28.32;61.04
13068;BME280;6600;51.362;6.686;2023-06-26T01:46:41;100780.94;;;28.36;60.56
13068;BME280;6600;51.362;6.686;2023-06-26T01:54:49;100776.53;;;28.06;61.56
13068;BME280;6600;51.362;6.686;2023-06-26T01:57:17;100784.94;;;28.01;61.45
13068;BME280;6600;51.362;6.686;2023-06-26T01:59:46;100783.47;;;28.03;61.42
13068;BME280;6600;51.362;6.686;2023-06-26T02:02:11;100788.22;;;27.86;61.77
13068;BME280;6600;51.362;6.686;2023-06-26T02:04:37;100785.00;;;27.84;62.10
13068;BME280;6600;51.362;6.686;2023-06-26T02:07:02;100788.91;;;27.83;62.39
13068;BME280;6600;51.362;6.686;2023-06-26T02:09:28;100791.88;;;27.60;63.20
13068;BME280;6600;51.362;6.686;2023-06-26T02:11:53;100792.66;;;27.70;62.56
13068;BME280;6600;51.362;6.686;2023-06-26T02:14:18;100790.25;;;27.59;62.71
13068;BME280;6600;51.362;6.686;2023-06-26T02:16:44;100788.00;;;27.62;62.06
13068;BME280;6600;51.362;6.686;2023-06-26T02:19:09;100795.91;;;27.63;61.91
13068;BME280;6600;51.362;6.686;2023-06-26T02:21:34;100793.50;;;27.62;62.21
13068;BME280;6600;51.362;6.686;2023-06-26T02:24:01;100789.41;;;27.85;61.06
13068;BME280;6600;51.362;6.686;2023-06-26T02:26:26;100811.63;;;27.71;60.92
13068;BME280;6600;51.362;6.686;2023-06-26T02:28:51;100800.47;;;27.59;60.92
13068;BME280;6600;51.362;6.686;2023-06-26T02:31:17;100793.81;;;27.51;61.08
13068;BME280;6600;51.362;6.686;2023-06-26T02:33:42;100802.75;;;27.48;61.03
13068;BME280;6600;51.362;6.686;2023-06-26T02:36:08;100807.78;;;27.46;60.90
13068;BME280;6600;51.362;6.686;2023-06-26T02:38:33;100807.75;;;27.29;60.42
13068;BME280;6600;51.362;6.686;2023-06-26T02:40:58;100804.56;;;27.44;60.53
13068;BME280;6600;51.362;6.686;2023-06-26T02:43:24;100809.06;;;27.57;60.31
13068;BME280;6600;51.362;6.686;2023-06-26T02:45:49;100814.88;;;27.65;59.93
13068;BME280;6600;51.362;6.686;2023-06-26T02:48:14;100820.06;;;27.57;60.05
13068;BME280;6600;51.362;6.686;2023-06-26T02:50:40;100823.28;;;27.59;60.35
13068;BME280;6600;51.362;6.686;2023-06-26T02:53:05;100828.81;;;27.59;60.32
13068;BME280;6600;51.362;6.686;2023-06-26T02:55:30;100837.25;;;27.54;60.10
13068;BME280;6600;51.362;6.686;2023-06-26T02:57:55;100844.03;;;27.48;60.45
13068;BME280;6600;51.362;6.686;2023-06-26T03:00:21;100840.78;;;27.55;60.61
13068;BME280;6600;51.362;6.686;2023-06-26T03:02:46;100840.81;;;27.46;61.04
13068;BME280;6600;51.362;6.686;2023-06-26T03:05:11;100843.06;;;27.62;60.01
13068;BME280;6600;51.362;6.686;2023-06-26T03:07:38;100847.09;;;27.55;60.47
13068;BME280;6600;51.362;6.686;2023-06-26T03:10:04;100850.50;;;27.61;60.76
13068;BME280;6600;51.362;6.686;2023-06-26T03:12:30;100842.22;;;27.70;60.12
13068;BME280;6600;51.362;6.686;2023-06-26T03:14:56;100849.66;;;27.69;60.83
13068;BME280;6600;51.362;6.686;2023-06-26T03:17:21;100853.25;;;27.61;60.97
13068;BME280;6600;51.362;6.686;2023-06-26T03:19:46;100854.09;;;27.44;61.05
13068;BME280;6600;51.362;6.686;2023-06-26T03:22:11;100849.84;;;27.55;60.53
13068;BME280;6600;51.362;6.686;2023-06-26T03:24:37;100852.94;;;27.37;61.25
13068;BME280;6600;51.362;6.686;2023-06-26T03:27:02;100857.47;;;27.50;61.40
13068;BME280;6600;51.362;6.686;2023-06-26T03:29:28;100861.81;;;27.42;60.97
13068;BME280;6600;51.362;6.686;2023-06-26T03:31:55;100871.25;;;27.50;61.65
13068;BME280;6600;51.362;6.686;2023-06-26T03:34:20;100872.19;;;27.45;61.83
13068;BME280;6600;51.362;6.686;2023-06-26T03:36:46;100864.63;;;27.51;61.73
13068;BME280;6600;51.362;6.686;2023-06-26T03:39:11;100870.41;;;27.32;62.84
13068;BME280;6600;51.362;6.686;2023-06-26T03:41:37;100857.44;;;27.24;63.12
13068;BME280;6600;51.362;6.686;2023-06-26T03:44:02;100872.00;;;27.25;62.69
13068;BME280;6600;51.362;6.686;2023-06-26T03:46:29;100873.81;;;27.29;62.03
13068;BME280;6600;51.362;6.686;2023-06-26T03:48:54;100875.56;;;27.25;62.00
13068;BME280;6600;51.362;6.686;2023-06-26T03:51:19;100882.84;;;27.38;61.50
13068;BME280;6600;51.362;6.686;2023-06-26T03:53:45;100882.03;;;27.38;61.91
13068;BME280;6600;51.362;6.686;2023-06-26T03:56:10;100878.34;;;27.42;61.48
13068;BME280;6600;51.362;6.686;2023-06-26T03:58:35;100888.06;;;27.48;61.72
13068;BME280;6600;51.362;6.686;2023-06-26T04:01:01;100888.41;;;27.47;62.58
13068;BME280;6600;51.362;6.686;2023-06-26T04:03:26;100893.56;;;27.48;62.37
13068;BME280;6600;51.362;6.686;2023-06-26T04:05:51;100901.00;;;27.39;62.44
13068;BME280;6600;51.362;6.686;2023-06-26T04:08:17;100891.63;;;27.40;62.10
13068;BME280;6600;51.362;6.686;2023-06-26T04:10:42;100898.13;;;27.44;62.58
13068;BME280;6600;51.362;6.686;2023-06-26T04:13:10;100893.91;;;27.55;63.08
13068;BME280;6600;51.362;6.686;2023-06-26T04:15:36;100900.53;;;27.72;62.41
13068;BME280;6600;51.362;6.686;2023-06-26T04:18:01;100891.94;;;27.82;62.47
13068;BME280;6600;51.362;6.686;2023-06-26T04:20:26;100897.09;;;27.92;62.00
13068;BME280;6600;51.362;6.686;2023-06-26T04:22:52;100898.06;;;27.96;62.75
13068;BME280;6600;51.362;6.686;2023-06-26T04:25:17;100907.16;;;27.88;62.76
13068;BME280;6600;51.362;6.686;2023-06-26T04:27:42;100907.94;;;27.97;62.56
13068;BME280;6600;51.362;6.686;2023-06-26T04:30:09;100910.88;;;27.83;63.60
13068;BME280;6600;51.362;6.686;2023-06-26T04:32:34;100904.84;;;27.21;62.45
13068;BME280;6600;51.362;6.686;2023-06-26T04:35:00;100913.81;;;27.52;61.75
13068;BME280;6600;51.362;6.686;2023-06-26T04:37:25;100919.31;;;27.52;61.54
13068;BME280;6600;51.362;6.686;2023-06-26T04:39:51;100910.06;;;27.66;61.38
13068;BME280;6600;51.362;6.686;2023-06-26T04:42:16;100918.19;;;27.71;60.97
13068;BME280;6600;51.362;6.686;2023-06-26T04:44:41;100916.25;;;27.63;59.82
13068;BME280;6600;51.362;6.686;2023-06-26T04:47:08;100914.28;;;27.37;61.19
13068;BME280;6600;51.362;6.686;2023-06-26T04:49:33;100917.88;;;27.46;60.47
13068;BME280;6600;51.362;6.686;2023-06-26T04:51:59;100917.38;;;27.53;60.48
13068;BME280;6600;51.362;6.686;2023-06-26T04:54:25;100919.50;;;27.65;59.88
13068;BME280;6600;51.362;6.686;2023-06-26T04:56:50;100924.69;;;27.57;58.91
13068;BME280;6600;51.362;6.686;2023-06-26T04:59:16;100927.06;;;27.33;58.96
13068;BME280;6600;51.362;6.686;2023-06-26T05:01:41;100929.53;;;27.78;59.19
13068;BME280;6600;51.362;6.686;2023-06-26T05:04:07;100933.72;;;27.67;58.86
13068;BME280;6600;51.362;6.686;2023-06-26T05:06:32;100939.53;;;27.91;58.40
13068;BME280;6600;51.362;6.686;2023-06-26T05:08:57;100945.56;;;27.67;58.17
13068;BME280;6600;51.362;6.686;2023-06-26T05:11:24;100941.34;;;27.61;58.79
13068;BME280;6600;51.362;6.686;2023-06-26T05:13:49;100946.38;;;27.68;59.22
13068;BME280;6600;51.362;6.686;2023-06-26T05:16:15;100952.84;;;27.72;58.85
13068;BME280;6600;51.362;6.686;2023-06-26T05:18:40;100944.38;;;27.42;59.44
13068;BME280;6600;51.362;6.686;2023-06-26T05:21:06;100957.38;;;27.50;59.32
13068;BME280;6600;51.362;6.686;2023-06-26T05:23:33;100962.56;;;27.78;58.29
13068;BME280;6600;51.362;6.686;2023-06-26T05:26:00;100964.34;;;28.08;58.50
13068;BME280;6600;51.362;6.686;2023-06-26T05:28:26;100966.78;;;28.09;58.39
13068;BME280;6600;51.362;6.686;2023-06-26T05:30:53;100962.22;;;28.22;57.46
13068;BME280;6600;51.362;6.686;2023-06-26T05:33:18;100981.00;;;28.37;57.54
13068;BME280;6600;51.362;6.686;2023-06-26T05:35:48;100978.34;;;28.49;57.09
13068;BME280;6600;51.362;6.686;2023-06-26T05:38:13;100972.06;;;28.40;57.81
13068;BME280;6600;51.362;6.686;2023-06-26T05:40:39;100967.03;;;28.42;57.18
13068;BME280;6600;51.362;6.686;2023-06-26T05:43:06;100980.22;;;28.02;57.93
13068;BME280;6600;51.362;6.686;2023-06-26T05:45:31;100975.69;;;27.64;59.00
13068;BME280;6600;51.362;6.686;2023-06-26T05:47:57;100978.59;;;27.84;59.45
13068;BME280;6600;51.362;6.686;2023-06-26T05:50:22;100974.22;;;27.75;58.84
13068;BME280;6600;51.362;6.686;2023-06-26T05:52:48;100976.69;;;27.11;60.14
13068;BME280;6600;51.362;6.686;2023-06-26T05:55:14;100971.44;;;27.40;60.34
13068;BME280;6600;51.362;6.686;2023-06-26T05:57:40;100979.22;;;27.73;59.62
13068;BME280;6600;51.362;6.686;2023-06-26T06:00:06;100981.34;;;27.67;59.33
13068;BME280;6600;51.362;6.686;2023-06-26T06:02:36;100985.25;;;28.09;59.59
13068;BME280;6600;51.362;6.686;2023-06-26T06:05:01;100985.91;;;27.89;59.24
13068;BME280;6600;51.362;6.686;2023-06-26T06:07:27;100984.91;;;28.02;58.75
13068;BME280;6600;51.362;6.686;2023-06-26T06:09:52;100985.41;;;27.78;59.61
13068;BME280;6600;51.362;6.686;2023-06-26T06:12:17;100992.53;;;27.71;60.46
13068;BME280;6600;51.362;6.686;2023-06-26T06:14:43;100996.91;;;27.72;60.31
13068;BME280;6600;51.362;6.686;2023-06-26T06:17:08;101001.09;;;27.60;60.61
13068;BME280;6600;51.362;6.686;2023-06-26T06:19:33;101017.94;;;27.50;60.01
13068;BME280;6600;51.362;6.686;2023-06-26T06:21:59;101013.84;;;27.48;61.11
13068;BME280;6600;51.362;6.686;2023-06-26T06:24:24;101013.41;;;27.54;60.21
13068;BME280;6600;51.362;6.686;2023-06-26T06:26:49;101011.84;;;27.31;60.75
13068;BME280;6600;51.362;6.686;2023-06-26T06:29:14;101013.25;;;27.59;59.91
13068;BME280;6600;51.362;6.686;2023-06-26T06:31:40;101018.63;;;28.16;59.47
13068;BME280;6600;51.362;6.686;2023-06-26T06:34:05;101024.91;;;28.51;59.21
13068;BME280;6600;51.362;6.686;2023-06-26T06:36:30;101027.34;;;28.44;58.61
13068;BME280;6600;51.362;6.686;2023-06-26T06:38:56;101023.91;;;28.64;57.99
13068;BME280;6600;51.362;6.686;2023-06-26T06:41:21;101034.78;;;28.60;58.60
13068;BME280;6600;51.362;6.686;2023-06-26T06:43:47;101040.22;;;28.86;58.68
13068;BME280;6600;51.362;6.686;2023-06-26T06:46:12;101037.09;;;28.96;57.47
13068;BME280;6600;51.362;6.686;2023-06-26T06:48:37;101035.09;;;28.68;58.06
13068;BME280;6600;51.362;6.686;2023-06-26T06:51:03;101050.66;;;28.64;58.59
13068;BME280;6600;51.362;6.686;2023-06-26T06:53:28;101052.28;;;28.65;59.14
13068;BME280;6600;51.362;6.686;2023-06-26T06:55:54;101066.09;;;27.96;60.76
13068;BME280;6600;51.362;6.686;2023-06-26T06:58:19;101054.59;;;28.28;60.21
13068;BME280;6600;51.362;6.686;2023-06-26T07:00:45;101068.19;;;27.82;60.91
13068;BME280;6600;51.362;6.686;2023-06-26T07:03:10;101065.56;;;27.77;60.49
13068;BME280;6600;51.362;6.686;2023-06-26T07:05:36;101060.44;;;28.18;60.36
13068;BME280;6600;51.362;6.686;2023-06-26T07:08:02;101066.94;;;28.22;60.87
13068;BME280;6600;51.362;6.686;2023-06-26T07:10:28;101065.91;;;28.52;60.53
13068;BME280;6600;51.362;6.686;2023-06-26T07:12:53;101062.22;;;28.14;59.71
13068;BME280;6600;51.362;6.686;2023-06-26T07:15:18;101054.50;;;28.88;58.71
13068;BME280;6600;51.362;6.686;2023-06-26T07:17:44;101059.97;;;28.97;58.43
13068;BME280;6600;51.362;6.686;2023-06-26T07:20:09;101064.75;;;28.79;58.02
13068;BME280;6600;51.362;6.686;2023-06-26T07:22:40;101055.91;;;29.03;58.31
13068;BME280;6600;51.362;6.686;2023-06-26T07:25:06;101058.53;;;29.37;57.57
13068;BME280;6600;51.362;6.686;2023-06-26T07:27:34;101055.47;;;29.59;57.08
13068;BME280;6600;51.362;6.686;2023-06-26T07:30:00;101057.78;;;29.20;57.37
13068;BME280;6600;51.362;6.686;2023-06-26T07:32:25;101064.41;;;29.27;57.65
13068;BME280;6600;51.362;6.686;2023-06-26T07:34:50;101076.19;;;29.45;57.93
13068;BME280;6600;51.362;6.686;2023-06-26T07:37:16;101077.28;;;29.52;57.55
13068;BME280;6600;51.362;6.686;2023-06-26T07:39:41;101080.03;;;29.52;57.20
13068;BME280;6600;51.362;6.686;2023-06-26T07:42:06;101073.00;;;29.64;57.12
13068;BME280;6600;51.362;6.686;2023-06-26T07:44:32;101079.75;;;29.45;57.58
13068;BME280;6600;51.362;6.686;2023-06-26T07:46:57;101075.22;;;29.03;57.85
13068;BME280;6600;51.362;6.686;2023-06-26T07:49:23;101090.38;;;28.80;58.46
13068;BME280;6600;51.362;6.686;2023-06-26T07:51:48;101094.72;;;28.98;58.11
13068;BME280;6600;51.362;6.686;2023-06-26T07:54:13;101087.13;;;29.24;57.73
13068;BME280;6600;51.362;6.686;2023-06-26T07:56:59;101087.34;;;29.10;57.74
13068;BME280;6600;51.362;6.686;2023-06-26T07:59:26;101100.28;;;28.81;58.44
13068;BME280;6600;51.362;6.686;2023-06-26T08:01:53;101105.81;;;29.27;59.03
13068;BME280;6600;51.362;6.686;2023-06-26T08:04:20;101107.63;;;29.23;57.57
13068;BME280;6600;51.362;6.686;2023-06-26T08:06:51;101112.53;;;29.09;58.73
13068;BME280;6600;51.362;6.686;2023-06-26T08:09:18;101106.09;;;29.43;57.46
13068;BME280;6600;51.362;6.686;2023-06-26T08:11:44;101113.91;;;28.69;58.79
13068;BME280;6600;51.362;6.686;2023-06-26T08:14:09;101112.47;;;28.71;58.28
13068;BME280;6600;51.362;6.686;2023-06-26T08:16:37;101113.44;;;28.58;58.86
13068;BME280;6600;51.362;6.686;2023-06-26T08:19:03;101122.69;;;28.71;59.20
13068;BME280;6600;51.362;6.686;2023-06-26T08:21:28;101125.56;;;28.83;59.07
13068;BME280;6600;51.362;6.686;2023-06-26T08:23:54;101123.16;;;28.55;57.60
13068;BME280;6600;51.362;6.686;2023-06-26T08:26:19;101129.69;;;28.68;58.08
13068;BME280;6600;51.362;6.686;2023-06-26T08:28:44;101125.56;;;28.83;57.11
13068;BME280;6600;51.362;6.686;2023-06-26T08:31:10;101124.41;;;29.01;56.39
13068;BME280;6600;51.362;6.686;2023-06-26T08:33:35;101124.34;;;29.65;56.92
13068;BME280;6600;51.362;6.686;2023-06-26T08:36:00;101138.28;;;29.22;55.90
13068;BME280;6600;51.362;6.686;2023-06-26T08:38:26;101138.19;;;29.01;56.27
13068;BME280;6600;51.362;6.686;2023-06-26T08:40:51;101144.09;;;28.82;56.07
13068;BME280;6600;51.362;6.686;2023-06-26T08:43:17;101146.19;;;28.85;56.17
13068;BME280;6600;51.362;6.686;2023-06-26T08:45:42;101146.22;;;29.40;55.77
13068;BME280;6600;51.362;6.686;2023-06-26T08:48:08;101142.03;;;29.17;55.62
13068;BME280;6600;51.362;6.686;2023-06-26T08:50:35;101144.28;;;29.70;55.30
13068;BME280;6600;51.362;6.686;2023-06-26T08:53:09;101157.13;;;29.66;55.33
13068;BME280;6600;51.362;6.686;2023-06-26T08:55:41;101155.00;;;29.25;54.91
13068;BME280;6600;51.362;6.686;2023-06-26T08:58:07;101147.09;;;29.62;54.63
13068;BME280;6600;51.362;6.686;2023-06-26T09:00:33;101151.94;;;29.65;54.42
13068;BME280;6600;51.362;6.686;2023-06-26T09:02:59;101161.88;;;29.95;54.66
13068;BME280;6600;51.362;6.686;2023-06-26T09:05:26;101156.44;;;29.78;54.50
13068;BME280;6600;51.362;6.686;2023-06-26T09:07:57;101150.03;;;29.56;54.78
13068;BME280;6600;51.362;6.686;2023-06-26T09:10:22;101141.56;;;29.62;54.17
13068;BME280;6600;51.362;6.686;2023-06-26T09:12:48;101152.91;;;29.31;54.11
13068;BME280;6600;51.362;6.686;2023-06-26T09:15:19;101146.34;;;29.82;54.23
13068;BME280;6600;51.362;6.686;2023-06-26T09:17:45;101148.25;;;29.90;52.77
13068;BME280;6600;51.362;6.686;2023-06-26T09:20:12;101136.94;;;30.24;52.99
13068;BME280;6600;51.362;6.686;2023-06-26T09:22:41;101138.97;;;30.56;53.41
13068;BME280;6600;51.362;6.686;2023-06-26T09:25:07;101152.19;;;30.30;52.14
13068;BME280;6600;51.362;6.686;2023-06-26T09:27:33;101160.41;;;30.39;52.31
13068;BME280;6600;51.362;6.686;2023-06-26T09:29:59;101158.41;;;30.48;52.32
13068;BME280;6600;51.362;6.686;2023-06-26T09:32:24;101167.31;;;30.53;51.74
13068;BME280;6600;51.362;6.686;2023-06-26T09:34:52;101167.53;;;31.02;52.73
13068;BME280;6600;51.362;6.686;2023-06-26T09:37:18;101166.22;;;30.67;51.56
13068;BME280;6600;51.362;6.686;2023-06-26T09:39:44;101163.16;;;30.47;50.70
13068;BME280;6600;51.362;6.686;2023-06-26T09:42:09;101158.91;;;30.83;51.90
13068;BME280;6600;51.362;6.686;2023-06-26T09:44:35;101155.44;;;30.86;50.90
13068;BME280;6600;51.362;6.686;2023-06-26T09:47:01;101160.31;;;30.89;49.89
13068;BME280;6600;51.362;6.686;2023-06-26T09:49:29;101163.28;;;30.84;49.25
13068;BME280;6600;51.362;6.686;2023-06-26T09:51:54;101169.50;;;31.14;49.56
13068;BME280;6600;51.362;6.686;2023-06-26T09:54:21;101166.72;;;31.59;50.09
13068;BME280;6600;51.362;6.686;2023-06-26T09:56:48;101168.00;;;31.73;48.56
13068;BME280;6600;51.362;6.686;2023-06-26T09:59:13;101173.53;;;31.61;48.48
13068;BME280;6600;51.362;6.686;2023-06-26T10:01:41;101176.25;;;31.49;48.70
13068;BME280;6600;51.362;6.686;2023-06-26T10:04:07;101168.66;;;31.34;49.62
13068;BME280;6600;51.362;6.686;2023-06-26T10:06:38;101177.59;;;31.19;50.13
13068;BME280;6600;51.362;6.686;2023-06-26T10:09:05;101169.81;;;31.00;51.29
13068;BME280;6600;51.362;6.686;2023-06-26T10:11:41;101176.69;;;30.94;50.64
13068;BME280;6600;51.362;6.686;2023-06-26T10:14:09;101173.47;;;30.92;50.05
13068;BME280;6600;51.362;6.686;2023-06-26T10:16:37;101180.91;;;30.17;51.64
13068;BME280;6600;51.362;6.686;2023-06-26T10:19:06;101194.13;;;30.12;50.83
13068;BME280;6600;51.362;6.686;2023-06-26T10:21:34;101190.63;;;29.65;51.33
13068;BME280;6600;51.362;6.686;2023-06-26T10:24:00;101189.59;;;29.23;51.89
13068;BME280;6600;51.362;6.686;2023-06-26T10:26:28;101188.25;;;29.84;52.22
13068;BME280;6600;51.362;6.686;2023-06-26T10:28:55;101193.88;;;30.67;51.08
13068;BME280;6600;51.362;6.686;2023-06-26T10:31:23;101183.91;;;30.53;50.04
13068;BME280;6600;51.362;6.686;2023-06-26T10:33:50;101190.13;;;30.50;50.19
13068;BME280;6600;51.362;6.686;2023-06-26T10:36:21;101195.72;;;31.16;48.19
13068;BME280;6600;51.362;6.686;2023-06-26T10:38:53;101196.66;;;30.67;48.18
13068;BME280;6600;51.362;6.686;2023-06-26T10:41:21;101193.47;;;30.77;49.08
13068;BME280;6600;51.362;6.686;2023-06-26T10:44:09;101204.63;;;30.47;48.91
13068;BME280;6600;51.362;6.686;2023-06-26T10:46:51;101200.47;;;30.33;50.15
13068;BME280;6600;51.362;6.686;2023-06-26T10:49:21;101198.69;;;29.78;50.01
13068;BME280;6600;51.362;6.686;2023-06-26T10:51:50;101203.34;;;29.48;50.32
13068;BME280;6600;51.362;6.686;2023-06-26T10:54:17;101201.31;;;30.04;48.96
13068;BME280;6600;51.362;6.686;2023-06-26T10:56:48;101202.59;;;30.06;50.18
13068;BME280;6600;51.362;6.686;2023-06-26T10:59:25;101208.78;;;30.03;49.27
13068;BME280;6600;51.362;6.686;2023-06-26T11:02:00;101210.41;;;30.34;49.40
13068;BME280;6600;51.362;6.686;2023-06-26T11:04:43;101220.06;;;30.69;48.23
13068;BME280;6600;51.362;6.686;2023-06-26T11:07:26;101222.53;;;30.83;47.17
13068;BME280;6600;51.362;6.686;2023-06-26T11:15:00;101217.69;;;30.59;44.33
13068;BME280;6600;51.362;6.686;2023-06-26T11:17:25;101224.97;;;30.84;45.01
13068;BME280;6600;51.362;6.686;2023-06-26T11:19:52;101221.41;;;30.84;44.72
13068;BME280;6600;51.362;6.686;2023-06-26T11:22:18;101216.25;;;30.62;45.43
13068;BME280;6600;51.362;6.686;2023-06-26T11:24:44;101235.84;;;30.48;45.76
13068;BME280;6600;51.362;6.686;2023-06-26T11:27:09;101239.91;;;29.45;46.19
13068;BME280;6600;51.362;6.686;2023-06-26T11:29:35;101245.06;;;30.02;43.92
13068;BME280;6600;51.362;6.686;2023-06-26T11:32:02;101242.00;;;30.24;43.35
13068;BME280;6600;51.362;6.686;2023-06-26T11:34:30;101241.81;;;30.00;42.89
13068;BME280;6600;51.362;6.686;2023-06-26T11:36:57;101241.91;;;30.41;43.96
13068;BME280;6600;51.362;6.686;2023-06-26T11:39:23;101248.09;;;30.38;43.56
13068;BME280;6600;51.362;6.686;2023-06-26T11:41:48;101253.19;;;30.28;42.37
13068;BME280;6600;51.362;6.686;2023-06-26T11:44:14;101251.56;;;30.06;42.02
13068;BME280;6600;51.362;6.686;2023-06-26T11:46:45;101243.06;;;30.11;42.58
13068;BME280;6600;51.362;6.686;2023-06-26T11:49:10;101251.97;;;30.67;44.00
13068;BME280;6600;51.362;6.686;2023-06-26T11:51:36;101263.53;;;30.10;42.92
13068;BME280;6600;51.362;6.686;2023-06-26T11:54:02;101262.22;;;29.70;44.96
13068;BME280;6600;51.362;6.686;2023-06-26T11:56:28;101259.97;;;29.72;43.46
13068;BME280;6600;51.362;6.686;2023-06-26T11:58:59;101272.88;;;29.97;42.28
13068;BME280;6600;51.362;6.686;2023-06-26T12:01:38;101263.91;;;30.00;41.95
13068;BME280;6600;51.362;6.686;2023-06-26T12:04:05;101269.72;;;30.07;41.57
13068;BME280;6600;51.362;6.686;2023-06-26T12:06:34;101267.47;;;30.09;40.02
13068;BME280;6600;51.362;6.686;2023-06-26T12:09:05;101258.69;;;30.07;41.78
13068;BME280;6600;51.362;6.686;2023-06-26T12:11:33;101277.41;;;30.01;42.56
13068;BME280;6600;51.362;6.686;2023-06-26T12:13:59;101277.19;;;29.69;41.50
13068;BME280;6600;51.362;6.686;2023-06-26T12:16:28;101283.16;;;29.88;41.57
13068;BME280;6600;51.362;6.686;2023-06-26T12:18:59;101277.53;;;30.43;42.46
13068;BME280;6600;51.362;6.686;2023-06-26T12:24:02;101292.13;;;30.14;39.95
13068;BME280;6600;51.362;6.686;2023-06-26T12:26:28;101288.53;;;30.22;40.51
13068;BME280;6600;51.362;6.686;2023-06-26T12:29:02;101299.19;;;30.32;40.42
13068;BME280;6600;51.362;6.686;2023-06-26T12:31:27;101299.00;;;30.08;40.43
13068;BME280;6600;51.362;6.686;2023-06-26T12:33:52;101304.88;;;30.36;40.23
13068;BME280;6600;51.362;6.686;2023-06-26T12:36:18;101297.94;;;29.92;39.86
13068;BME280;6600;51.362;6.686;2023-06-26T12:38:45;101310.28;;;30.24;39.83
13068;BME280;6600;51.362;6.686;2023-06-26T12:41:14;101307.09;;;29.75;39.95
13068;BME280;6600;51.362;6.686;2023-06-26T12:43:39;101307.22;;;29.79;40.74
13068;BME280;6600;51.362;6.686;2023-06-26T12:46:05;101310.44;;;29.98;40.53
13068;BME280;6600;51.362;6.686;2023-06-26T12:48:41;101310.47;;;29.81;40.23
13068;BME280;6600;51.362;6.686;2023-06-26T12:51:10;101305.81;;;29.64;38.91
13068;BME280;6600;51.362;6.686;2023-06-26T12:53:36;101305.34;;;29.53;38.21
13068;BME280;6600;51.362;6.686;2023-06-26T12:56:01;101295.78;;;29.42;39.67
13068;BME280;6600;51.362;6.686;2023-06-26T12:58:26;101291.25;;;29.93;39.68
13068;BME280;6600;51.362;6.686;2023-06-26T13:00:52;101295.31;;;30.33;39.07
13068;BME280;6600;51.362;6.686;2023-06-26T13:03:19;101293.13;;;30.47;39.65
13068;BME280;6600;51.362;6.686;2023-06-26T13:05:45;101307.81;;;30.31;39.32
13068;BME280;6600;51.362;6.686;2023-06-26T13:08:11;101310.38;;;30.44;39.75
13068;BME280;6600;51.362;6.686;2023-06-26T13:10:37;101319.34;;;30.03;40.06